createdAt,value
2023-02-23T00:02:29.054Z,6.98
2023-02-23T00:05:42.475Z,6.94
2023-02-23T00:08:52.406Z,6.90
2023-02-23T00:12:03.399Z,6.90
2023-02-23T00:15:13.447Z,6.90
2023-02-23T00:18:22.988Z,6.80
2023-02-23T00:21:35.082Z,6.80
2023-02-23T00:24:43.542Z,6.78
2023-02-23T00:27:52.643Z,6.70
2023-02-23T00:31:04.095Z,6.70
2023-02-23T00:34:14.388Z,6.70
2023-02-23T00:37:23.707Z,6.62
2023-02-23T00:40:31.805Z,6.60
2023-02-23T00:43:47.610Z,6.60
2023-02-23T00:46:56.033Z,6.50
2023-02-23T00:50:04.966Z,6.50
2023-02-23T00:53:13.050Z,6.50
2023-02-23T00:56:22.237Z,6.50
2023-02-23T00:59:30.851Z,6.44
2023-02-23T01:02:38.371Z,6.40
2023-02-23T01:05:50.059Z,6.40
2023-02-23T01:08:58.048Z,6.40
2023-02-23T01:12:07.700Z,6.32
2023-02-23T01:15:16.748Z,6.30
2023-02-23T01:18:25.796Z,6.30
2023-02-23T01:21:36.854Z,6.30
2023-02-23T01:24:45.213Z,6.24
2023-02-23T01:27:54.501Z,6.20
2023-02-23T01:31:03.084Z,6.20
2023-02-23T01:34:14.715Z,6.20
2023-02-23T01:37:22.799Z,6.20
2023-02-23T01:40:32.170Z,6.20
2023-02-23T01:43:52.743Z,6.20
2023-02-23T01:47:00.908Z,6.10
2023-02-23T01:50:12.167Z,6.10
2023-02-23T01:53:22.852Z,6.10
2023-02-23T01:56:36.742Z,6.10
2023-02-23T01:59:49.073Z,6.10
2023-02-23T02:02:58.410Z,6.10
2023-02-23T02:06:13.900Z,6.10
2023-02-23T02:09:25.891Z,6.10
2023-02-23T02:12:34.320Z,6.00
2023-02-23T02:16:06.734Z,6.00
2023-02-23T02:20:13.943Z,6.00
2023-02-23T02:24:11.552Z,5.92
2023-02-23T02:27:45.092Z,5.90
2023-02-23T02:31:36.540Z,5.90
2023-02-23T02:35:24.848Z,5.86
2023-02-23T02:38:51.015Z,5.80
2023-02-23T02:42:12.414Z,5.80
2023-02-23T02:45:32.191Z,5.80
2023-02-23T02:48:50.757Z,5.72
2023-02-23T02:52:06.926Z,5.70
2023-02-23T02:55:23.880Z,5.70
2023-02-23T02:58:33.807Z,5.70
2023-02-23T03:01:59.642Z,5.70
2023-02-23T03:05:33.845Z,5.70
2023-02-23T03:09:12.618Z,5.70
2023-02-23T03:12:56.179Z,5.70
2023-02-23T03:16:35.905Z,5.70
2023-02-23T03:20:13.806Z,5.70
2023-02-23T03:23:47.812Z,5.70
2023-02-23T03:27:20.294Z,5.70
2023-02-23T03:30:55.911Z,5.70
2023-02-23T03:34:31.277Z,5.70
2023-02-23T03:38:06.938Z,5.68
2023-02-23T03:41:36.906Z,5.70
2023-02-23T03:45:06.971Z,5.64
2023-02-23T03:48:39.138Z,5.60
2023-02-23T03:52:13.427Z,5.60
2023-02-23T03:55:45.688Z,5.60
2023-02-23T03:59:18.891Z,5.60
2023-02-23T04:02:46.265Z,5.60
2023-02-23T04:06:14.704Z,5.60
2023-02-23T04:09:40.164Z,5.60
2023-02-23T04:13:15.408Z,5.60
2023-02-23T04:16:22.496Z,5.60
2023-02-23T04:19:32.320Z,5.60
2023-02-23T04:22:40.608Z,5.60
2023-02-23T04:25:48.941Z,5.60
2023-02-23T04:28:57.552Z,5.60
2023-02-23T04:32:06.107Z,5.60
2023-02-23T04:35:15.001Z,5.60
2023-02-23T04:38:23.540Z,5.60
2023-02-23T04:41:32.193Z,5.60
2023-02-23T04:44:39.954Z,5.60
2023-02-23T04:47:48.004Z,5.60
2023-02-23T04:50:58.265Z,5.60
2023-02-23T04:54:06.843Z,5.60
2023-02-23T04:57:15.299Z,5.60
2023-02-23T05:00:24.502Z,5.60
2023-02-23T05:03:32.492Z,5.60
2023-02-23T05:06:40.834Z,5.60
2023-02-23T05:09:48.928Z,5.60
2023-02-23T05:12:57.301Z,5.60
2023-02-23T05:16:06.135Z,5.60
2023-02-23T05:19:14.227Z,5.58
2023-02-23T05:22:22.759Z,5.50
2023-02-23T05:25:30.640Z,5.50
2023-02-23T05:28:40.789Z,5.50
2023-02-23T05:31:48.967Z,5.50
2023-02-23T05:34:57.300Z,5.48
2023-02-23T05:38:05.507Z,5.40
2023-02-23T05:41:15.968Z,5.40
2023-02-23T05:44:24.758Z,5.40
2023-02-23T05:47:38.778Z,5.40
2023-02-23T05:50:47.161Z,5.38
2023-02-23T05:53:55.065Z,5.30
2023-02-23T05:57:03.423Z,5.30
2023-02-23T06:00:15.410Z,5.30
2023-02-23T06:03:23.832Z,5.30
2023-02-23T06:06:31.617Z,5.26
2023-02-23T06:09:39.450Z,5.20
2023-02-23T06:12:47.379Z,5.20
2023-02-23T06:15:55.346Z,5.20
2023-02-23T06:19:03.479Z,5.20
2023-02-23T06:22:12.147Z,5.20
2023-02-23T06:25:20.410Z,5.20
2023-02-23T06:28:29.717Z,5.20
2023-02-23T06:31:37.645Z,5.26
2023-02-23T06:34:45.996Z,5.26
2023-02-23T06:37:54.052Z,5.30
2023-02-23T06:41:03.191Z,5.30
2023-02-23T06:44:11.330Z,5.30
2023-02-23T06:47:19.316Z,5.30
2023-02-23T06:50:27.602Z,5.30
2023-02-23T06:53:35.693Z,5.30
2023-02-23T06:56:43.756Z,5.38
2023-02-23T06:59:52.801Z,5.40
2023-02-23T07:03:01.473Z,5.40
2023-02-23T07:06:10.326Z,5.40
2023-02-23T07:09:18.551Z,5.40
2023-02-23T07:12:26.619Z,5.50
2023-02-23T07:15:34.552Z,5.50
2023-02-23T07:18:43.040Z,5.50
2023-02-23T07:21:51.144Z,5.58
2023-02-23T07:24:59.361Z,5.60
2023-02-23T07:28:07.763Z,5.60
2023-02-23T07:31:16.039Z,5.60
2023-02-23T07:34:24.145Z,5.60
2023-02-23T07:37:32.712Z,5.70
2023-02-23T07:40:40.646Z,5.70
2023-02-23T07:43:48.471Z,5.70
2023-02-23T07:46:56.222Z,5.80
2023-02-23T07:50:09.903Z,5.80
2023-02-23T07:53:17.733Z,5.90
2023-02-23T07:56:25.824Z,5.94
2023-02-23T07:59:33.715Z,6.00
2023-02-23T08:02:41.817Z,6.00
2023-02-23T08:05:49.828Z,6.00
2023-02-23T08:08:59.688Z,6.10
2023-02-23T08:12:06.599Z,6.20
2023-02-23T08:15:15.760Z,6.30
2023-02-23T08:18:23.703Z,6.30
2023-02-23T08:21:32.402Z,6.40
2023-02-23T08:24:40.377Z,6.48
2023-02-23T08:27:52.161Z,6.50
2023-02-23T08:31:00.547Z,6.50
2023-02-23T08:34:08.878Z,6.60
2023-02-23T08:37:17.059Z,6.68
2023-02-23T08:40:25.254Z,6.70
2023-02-23T08:43:33.848Z,6.72
2023-02-23T08:46:42.041Z,6.80
2023-02-23T08:49:50.168Z,6.80
2023-02-23T08:52:58.649Z,6.90
2023-02-23T08:56:10.366Z,6.90
2023-02-23T08:59:18.449Z,7.00
2023-02-23T09:02:27.617Z,7.00
2023-02-23T09:05:38.313Z,7.00
2023-02-23T09:08:46.199Z,7.00
2023-02-23T09:11:54.943Z,7.10
2023-02-23T09:15:03.706Z,7.10
2023-02-23T09:18:15.428Z,7.20
2023-02-23T09:21:25.417Z,7.20
2023-02-23T09:24:35.171Z,7.30
2023-02-23T09:27:43.016Z,7.40
2023-02-23T09:30:51.528Z,7.50
2023-02-23T09:34:00.941Z,7.50
2023-02-23T09:37:09.878Z,7.60
2023-02-23T09:40:25.043Z,7.70
2023-02-23T09:43:44.062Z,7.76
2023-02-23T09:47:11.581Z,7.88
2023-02-23T09:50:26.237Z,7.90
2023-02-23T09:53:41.334Z,8.00
2023-02-23T09:56:54.634Z,8.04
2023-02-23T10:00:05.898Z,8.10
2023-02-23T10:03:30.760Z,8.10
2023-02-23T10:06:40.741Z,8.10
2023-02-23T10:10:00.270Z,8.10
2023-02-23T10:13:17.115Z,8.10
2023-02-23T10:16:36.674Z,8.10
2023-02-23T10:19:54.880Z,8.10
2023-02-23T10:23:13.654Z,8.14
2023-02-23T10:26:26.485Z,8.18
2023-02-23T10:29:40.642Z,8.20
2023-02-23T10:32:58.999Z,8.20
2023-02-23T10:36:19.541Z,8.30
2023-02-23T10:39:27.741Z,8.30
2023-02-23T10:42:36.273Z,8.30
2023-02-23T10:45:51.983Z,8.40
2023-02-23T10:49:02.145Z,8.40
2023-02-23T10:52:14.847Z,8.50
2023-02-23T10:55:33.096Z,8.50
2023-02-23T10:58:51.658Z,8.54
2023-02-23T11:02:02.575Z,8.58
2023-02-23T11:05:33.429Z,8.60
2023-02-23T11:08:42.326Z,8.60
2023-02-23T11:12:03.012Z,8.60
2023-02-23T11:15:49.082Z,8.64
2023-02-23T11:19:01.969Z,8.70
2023-02-23T11:22:22.557Z,8.70
2023-02-23T11:25:34.737Z,8.70
2023-02-23T11:28:46.500Z,8.64
2023-02-23T11:31:59.404Z,8.60
2023-02-23T11:35:32.856Z,8.60
2023-02-23T11:38:41.026Z,8.60
2023-02-23T11:42:05.124Z,8.60
2023-02-23T11:45:26.170Z,8.60
2023-02-23T11:48:44.853Z,8.60
2023-02-23T11:51:54.950Z,8.60
2023-02-23T11:55:07.723Z,8.70
2023-02-23T11:58:28.253Z,8.70
2023-02-23T12:01:49.692Z,8.70
2023-02-23T12:05:08.853Z,8.70
2023-02-23T12:08:27.805Z,8.80
2023-02-23T12:11:45.335Z,8.80
2023-02-23T12:15:03.506Z,8.90
2023-02-23T12:18:28.084Z,8.90
2023-02-23T12:21:44.306Z,8.90
2023-02-23T12:25:00.655Z,8.92
2023-02-23T12:28:19.099Z,9.00
2023-02-23T12:31:42.452Z,9.00
2023-02-23T12:34:56.649Z,9.06
2023-02-23T12:38:14.237Z,9.10
2023-02-23T12:41:33.576Z,9.20
2023-02-23T12:44:49.071Z,9.20
2023-02-23T12:48:10.225Z,9.30
2023-02-23T12:51:30.138Z,9.30
2023-02-23T12:54:36.766Z,9.38
2023-02-23T12:58:00.051Z,9.40
2023-02-23T13:01:14.955Z,9.40
2023-02-23T13:05:05.063Z,9.50
2023-02-23T13:08:28.503Z,9.50
2023-02-23T13:11:59.658Z,9.60
2023-02-23T13:15:28.166Z,9.70
2023-02-23T13:18:43.516Z,9.80
2023-02-23T13:22:00.158Z,9.90
2023-02-23T13:25:24.206Z,10.00
2023-02-23T13:28:50.492Z,10.10
2023-02-23T13:31:59.145Z,10.10
2023-02-23T13:35:14.475Z,10.10
2023-02-23T13:38:37.014Z,10.10
2023-02-23T13:41:57.830Z,10.04
2023-02-23T13:45:33.993Z,9.90
2023-02-23T13:48:57.952Z,9.86
2023-02-23T13:52:21.825Z,9.80
2023-02-23T13:55:53.734Z,9.74
2023-02-23T13:59:08.480Z,9.70
2023-02-23T14:02:41.070Z,9.70
2023-02-23T14:05:54.158Z,9.70
2023-02-23T14:09:11.134Z,9.70
2023-02-23T14:12:34.331Z,9.70
2023-02-23T14:15:53.926Z,9.70
2023-02-23T14:19:36.789Z,9.80
2023-02-23T14:23:34.455Z,9.80
2023-02-23T14:27:25.118Z,9.80
2023-02-23T14:30:52.478Z,9.80
2023-02-23T14:34:09.838Z,9.70
2023-02-23T14:37:27.773Z,9.70
2023-02-23T14:40:40.999Z,9.60
2023-02-23T14:43:53.322Z,9.60
2023-02-23T14:47:08.380Z,9.60
2023-02-23T14:50:25.653Z,9.58
2023-02-23T14:53:34.972Z,9.50
2023-02-23T14:56:52.785Z,9.50
2023-02-23T15:00:05.697Z,9.46
2023-02-23T15:03:15.175Z,9.40
2023-02-23T15:06:23.531Z,9.40
2023-02-23T15:09:39.383Z,9.30
2023-02-23T15:12:48.986Z,9.30
2023-02-23T15:15:59.004Z,9.20
2023-02-23T15:19:08.660Z,9.10
2023-02-23T15:22:29.337Z,9.00
2023-02-23T15:25:44.853Z,9.00
2023-02-23T15:28:53.274Z,8.90
2023-02-23T15:32:16.232Z,8.90
2023-02-23T15:35:26.729Z,8.80
2023-02-23T15:38:44.300Z,8.80
2023-02-23T15:41:53.679Z,8.70
2023-02-23T15:45:13.851Z,8.70
2023-02-23T15:48:26.800Z,8.70
2023-02-23T15:51:40.455Z,8.60
2023-02-23T15:54:57.036Z,8.60
2023-02-23T15:58:19.968Z,8.50
2023-02-23T16:01:33.848Z,8.50
2023-02-23T16:04:49.198Z,8.40
2023-02-23T16:08:23.170Z,8.40
2023-02-23T16:11:36.624Z,8.38
2023-02-23T16:14:54.963Z,8.30
2023-02-23T16:18:07.194Z,8.30
2023-02-23T16:21:22.832Z,8.20
2023-02-23T16:24:32.528Z,8.20
2023-02-23T16:27:43.491Z,8.20
2023-02-23T16:31:05.840Z,8.12
2023-02-23T16:34:28.700Z,8.10
2023-02-23T16:37:59.596Z,8.10
2023-02-23T16:41:16.010Z,8.04
2023-02-23T16:44:34.136Z,8.00
2023-02-23T16:47:49.175Z,8.00
2023-02-23T16:50:57.212Z,8.00
2023-02-23T16:54:05.448Z,7.92
2023-02-23T16:57:25.382Z,7.90
2023-02-23T17:00:35.148Z,7.90
2023-02-23T17:03:52.588Z,7.90
2023-02-23T17:07:01.079Z,7.90
2023-02-23T17:10:23.301Z,7.86
2023-02-23T17:13:34.202Z,7.80
2023-02-23T17:16:42.360Z,7.80
2023-02-23T17:19:50.507Z,7.80
2023-02-23T17:23:02.561Z,7.80
2023-02-23T17:26:15.913Z,7.80
2023-02-23T17:29:24.571Z,7.78
2023-02-23T17:32:33.957Z,7.72
2023-02-23T17:35:42.958Z,7.72
2023-02-23T17:38:51.273Z,7.70
2023-02-23T17:41:59.224Z,7.70
2023-02-23T17:45:10.045Z,7.70
2023-02-23T17:48:18.805Z,7.70
2023-02-23T17:51:29.276Z,7.62
2023-02-23T17:54:37.340Z,7.60
2023-02-23T17:57:46.251Z,7.60
2023-02-23T18:00:59.818Z,7.60
2023-02-23T18:04:10.357Z,7.60
2023-02-23T18:07:19.619Z,7.60
2023-02-23T18:10:27.661Z,7.54
2023-02-23T18:13:36.844Z,7.50
2023-02-23T18:16:45.157Z,7.50
2023-02-23T18:19:53.031Z,7.50
2023-02-23T18:23:01.264Z,7.50
2023-02-23T18:26:15.305Z,7.46
2023-02-23T18:29:23.688Z,7.40
2023-02-23T18:32:31.756Z,7.40
2023-02-23T18:35:45.807Z,7.40
2023-02-23T18:38:54.587Z,7.40
2023-02-23T18:42:04.427Z,7.42
2023-02-23T18:45:14.755Z,7.48
2023-02-23T18:48:22.754Z,7.46
2023-02-23T18:51:31.108Z,7.46
2023-02-23T18:54:41.221Z,7.44
2023-02-23T18:57:50.508Z,7.42
2023-02-23T19:00:59.043Z,7.42
2023-02-23T19:04:10.697Z,7.44
2023-02-23T19:07:19.361Z,7.44
2023-02-23T19:10:28.910Z,7.50
2023-02-23T19:13:38.161Z,7.50
2023-02-23T19:16:49.223Z,7.50
2023-02-23T19:20:00.784Z,7.50
2023-02-23T19:23:10.363Z,7.50
2023-02-23T19:26:21.709Z,7.50
2023-02-23T19:29:31.784Z,7.50
2023-02-23T19:32:41.595Z,7.50
2023-02-23T19:35:50.868Z,7.50
2023-02-23T19:39:11.208Z,7.50
2023-02-23T19:42:20.501Z,7.50
2023-02-23T19:45:28.591Z,7.50
2023-02-23T19:48:36.992Z,7.50
2023-02-23T19:51:45.530Z,7.50
2023-02-23T19:54:54.120Z,7.50
2023-02-23T19:58:03.671Z,7.50
2023-02-23T20:01:14.801Z,7.50
2023-02-23T20:04:22.905Z,7.50
2023-02-23T20:07:30.783Z,7.50
2023-02-23T20:10:42.944Z,7.50
2023-02-23T20:13:53.004Z,7.50
2023-02-23T20:17:01.128Z,7.60
2023-02-23T20:20:12.492Z,7.60
2023-02-23T20:23:20.448Z,7.60
2023-02-23T20:26:34.741Z,7.60
2023-02-23T20:29:45.387Z,7.60
2023-02-23T20:32:53.609Z,7.60
2023-02-23T20:36:01.417Z,7.60
2023-02-23T20:39:10.621Z,7.60
2023-02-23T20:42:19.143Z,7.60
2023-02-23T20:45:28.953Z,7.60
2023-02-23T20:48:38.096Z,7.60
2023-02-23T20:51:48.850Z,7.56
2023-02-23T20:54:56.942Z,7.50
2023-02-23T20:58:07.268Z,7.50
2023-02-23T21:01:21.248Z,7.50
2023-02-23T21:04:29.588Z,7.50
2023-02-23T21:07:37.977Z,7.50
2023-02-23T21:10:48.528Z,7.42
2023-02-23T21:13:56.946Z,7.40
2023-02-23T21:17:05.662Z,7.38
2023-02-23T21:20:18.599Z,7.30
2023-02-23T21:23:28.568Z,7.30
2023-02-23T21:26:37.291Z,7.30
2023-02-23T21:29:46.018Z,7.22
2023-02-23T21:32:56.483Z,7.20
2023-02-23T21:36:05.036Z,7.20
2023-02-23T21:39:13.214Z,7.20
2023-02-23T21:42:24.161Z,7.30
2023-02-23T21:45:31.944Z,7.48
2023-02-23T21:48:40.091Z,7.60
2023-02-23T21:51:48.135Z,7.70
2023-02-23T21:54:56.724Z,7.80
2023-02-23T21:58:05.818Z,7.90
2023-02-23T22:01:21.168Z,8.00
2023-02-23T22:04:29.268Z,8.10
2023-02-23T22:07:37.252Z,8.10
2023-02-23T22:10:46.465Z,8.20
2023-02-23T22:13:59.158Z,8.20
2023-02-23T22:17:09.638Z,8.20
2023-02-23T22:20:20.604Z,8.20
2023-02-23T22:23:29.107Z,8.26
2023-02-23T22:26:39.577Z,8.30
2023-02-23T22:29:47.481Z,8.30
2023-02-23T22:32:56.248Z,8.30
2023-02-23T22:36:13.035Z,8.20
2023-02-23T22:39:21.195Z,8.20
2023-02-23T22:42:29.968Z,8.20
2023-02-23T22:45:43.119Z,8.20
2023-02-23T22:48:50.897Z,8.20
2023-02-23T22:51:58.778Z,8.12
2023-02-23T22:55:08.046Z,8.10
2023-02-23T22:58:16.357Z,8.10
2023-02-23T23:01:26.775Z,8.10
2023-02-23T23:04:35.745Z,8.10
2023-02-23T23:07:46.486Z,8.20
2023-02-23T23:10:57.269Z,8.20
2023-02-23T23:14:10.436Z,8.20
2023-02-23T23:17:20.388Z,8.20
2023-02-23T23:20:29.686Z,8.22
2023-02-23T23:23:37.871Z,8.22
2023-02-23T23:26:46.056Z,8.28
2023-02-23T23:29:54.272Z,8.26
2023-02-23T23:33:03.732Z,8.28
2023-02-23T23:36:13.050Z,8.28
2023-02-23T23:39:26.438Z,8.26
2023-02-23T23:42:34.992Z,8.24
2023-02-23T23:45:44.905Z,8.20
2023-02-23T23:48:54.583Z,8.20
2023-02-23T23:52:02.567Z,8.20
2023-02-23T23:55:12.391Z,8.20
2023-02-23T23:58:20.506Z,8.20
